Time;durP1;ratioP1;P1;durP2;ratioP2;P2;SDS_P1;SDS_P2;PMS_P1;PMS_P2;Temp;Humidity;BMP_temperature;BMP_pressure;BME280_temperature;BME280_humidity;BME280_pressure;Samples;Min_cycle;Max_cycle;Signal;HPM_P1;HPM_P2
2022/03/22 00:00:15;;;;;;;27.02;21.58;;;5.80;74.70;;;;;;5012124;28;20043;-44
2022/03/22 00:02:42;;;;;;;25.60;21.13;;;5.70;74.50;;;;;;5011509;28;20060;-44
2022/03/22 00:05:17;;;;;;;30.90;21.88;;;5.70;74.30;;;;;;5011227;28;20034;-44
2022/03/22 00:07:44;;;;;;;28.15;21.35;;;5.70;74.10;;;;;;5011099;28;20120;-44
2022/03/22 00:10:10;;;;;;;28.00;20.70;;;5.80;73.10;;;;;;4994729;28;20056;-45
2022/03/22 00:12:37;;;;;;;23.65;18.80;;;5.90;73.20;;;;;;5011624;28;20037;-44
2022/03/22 00:15:04;;;;;;;28.17;20.95;;;5.90;71.80;;;;;;5011983;28;20046;-45
2022/03/22 00:17:30;;;;;;;25.25;19.98;;;6.00;71.40;;;;;;5011553;28;20034;-45
2022/03/22 00:19:57;;;;;;;24.48;20.02;;;6.10;70.80;;;;;;4994296;28;20065;-44
2022/03/22 00:22:27;;;;;;;25.58;19.63;;;6.20;69.70;;;;;;5010578;28;20093;-47
2022/03/22 00:24:57;;;;;;;26.83;20.40;;;6.30;69.50;;;;;;5011564;28;20069;-45
2022/03/22 00:27:27;;;;;;;25.95;19.00;;;6.40;69.00;;;;;;5010858;28;20030;-44
2022/03/22 00:29:54;;;;;;;27.23;20.63;;;6.40;69.30;;;;;;5011548;28;20026;-45
2022/03/22 00:32:22;;;;;;;25.70;19.35;;;6.40;69.70;;;;;;5011636;28;20396;-46
2022/03/22 00:34:49;;;;;;;28.67;21.55;;;6.30;69.90;;;;;;5003852;28;20113;-44
2022/03/22 00:37:20;;;;;;;29.73;20.52;;;6.30;70.30;;;;;;5010345;28;20032;-44
2022/03/22 00:39:48;;;;;;;27.77;20.10;;;6.20;71.00;;;;;;5010657;28;20034;-45
2022/03/22 00:42:15;;;;;;;28.85;21.38;;;6.10;71.00;;;;;;5010164;28;20056;-45
2022/03/22 00:44:42;;;;;;;25.65;21.05;;;6.00;71.40;;;;;;5011005;28;20030;-45
2022/03/22 00:47:10;;;;;;;28.65;20.77;;;6.00;71.40;;;;;;5010319;28;20029;-44
2022/03/22 00:49:40;;;;;;;25.67;20.33;;;5.90;71.60;;;;;;5011410;28;20037;-45
2022/03/22 00:52:07;;;;;;;25.25;19.98;;;5.80;72.60;;;;;;5011414;28;20510;-45
2022/03/22 00:54:35;;;;;;;24.77;20.25;;;5.70;72.60;;;;;;5011316;28;20489;-44
2022/03/22 00:57:02;;;;;;;23.77;19.58;;;5.60;72.40;;;;;;5011277;28;20436;-44
2022/03/22 01:02:14;;;;;;;30.33;21.92;;;5.50;73.30;;;;;;4991310;28;20069;-44
2022/03/22 01:04:43;;;;;;;29.58;21.80;;;5.40;73.70;;;;;;5009265;28;20042;-45
2022/03/22 01:07:10;;;;;;;25.80;20.60;;;5.40;73.90;;;;;;5011563;28;20041;-44
2022/03/22 01:09:38;;;;;;;26.63;19.98;;;5.40;74.60;;;;;;5009373;28;20480;-45
2022/03/22 01:12:04;;;;;;;27.55;21.23;;;5.30;74.50;;;;;;4991379;28;20030;-47
2022/03/22 01:14:34;;;;;;;27.73;21.55;;;5.40;73.70;;;;;;5006924;28;20077;-44
2022/03/22 01:17:02;;;;;;;28.17;20.95;;;5.40;73.60;;;;;;5010693;28;20404;-45
2022/03/22 01:19:30;;;;;;;27.67;20.85;;;5.40;73.40;;;;;;5010968;28;20037;-44
2022/03/22 01:21:57;;;;;;;28.10;21.33;;;5.30;73.20;;;;;;5009780;28;20388;-44
2022/03/22 01:24:23;;;;;;;25.30;19.70;;;5.30;73.70;;;;;;5010669;28;20045;-44
2022/03/22 01:26:51;;;;;;;30.35;22.33;;;5.30;73.70;;;;;;5010935;28;20117;-46
2022/03/22 01:29:18;;;;;;;26.48;20.60;;;5.30;73.80;;;;;;5009641;28;20030;-46
2022/03/22 01:31:45;;;;;;;25.55;20.23;;;5.30;74.10;;;;;;5010193;28;20462;-44
2022/03/22 01:34:15;;;;;;;25.55;20.27;;;5.20;74.20;;;;;;5010401;28;20041;-44
2022/03/22 01:36:42;;;;;;;30.73;21.25;;;5.20;74.20;;;;;;4977095;28;20026;-44
2022/03/22 01:39:09;;;;;;;29.52;20.65;;;5.20;74.10;;;;;;5010284;28;20064;-45
2022/03/22 01:41:36;;;;;;;29.15;21.67;;;5.10;74.40;;;;;;5009944;28;20026;-47
2022/03/22 01:44:03;;;;;;;25.17;19.98;;;5.10;74.60;;;;;;5010381;28;20104;-45
2022/03/22 01:46:37;;;;;;;25.33;19.60;;;5.00;74.80;;;;;;5010581;28;20049;-47
2022/03/22 01:49:03;;;;;;;29.52;22.30;;;4.90;74.80;;;;;;5009419;28;20026;-46
2022/03/22 01:51:35;;;;;;;28.55;20.23;;;4.90;75.00;;;;;;5009983;28;20032;-45
2022/03/22 01:54:04;;;;;;;28.98;21.52;;;4.90;75.10;;;;;;5009484;28;20109;-47
2022/03/22 01:56:32;;;;;;;28.27;21.83;;;4.80;75.30;;;;;;5008786;28;20034;-45
2022/03/22 01:58:58;;;;;;;24.67;18.95;;;4.80;75.40;;;;;;5010350;28;20386;-44
2022/03/22 02:06:58;;;;;;;25.80;20.00;;;4.70;76.00;;;;;;5009236;28;20037;-44
2022/03/22 02:09:25;;;;;;;25.50;19.38;;;4.60;76.10;;;;;;4992338;28;20045;-44
2022/03/22 02:11:52;;;;;;;25.98;20.92;;;4.60;76.20;;;;;;5009900;28;20081;-44
2022/03/22 02:14:18;;;;;;;30.35;20.52;;;4.50;76.30;;;;;;5008697;28;20049;-44
2022/03/22 02:16:45;;;;;;;23.02;19.23;;;4.50;76.30;;;;;;5010228;28;20068;-45
2022/03/22 02:19:15;;;;;;;29.35;22.17;;;4.50;76.30;;;;;;5008392;28;20026;-44
2022/03/22 02:21:44;;;;;;;26.42;21.52;;;4.50;76.40;;;;;;5010228;28;20038;-43
2022/03/22 02:24:11;;;;;;;27.23;20.85;;;4.40;76.40;;;;;;5010014;28;20506;-44
2022/03/22 02:26:37;;;;;;;26.83;20.55;;;4.40;76.60;;;;;;5010027;28;20037;-44
2022/03/22 02:29:04;;;;;;;26.13;20.20;;;4.40;76.80;;;;;;5008645;28;20056;-44
2022/03/22 02:31:31;;;;;;;28.25;20.92;;;4.50;77.10;;;;;;5008066;28;20038;-45
2022/03/22 02:33:59;;;;;;;26.30;20.23;;;4.40;77.10;;;;;;5008737;28;20088;-45
2022/03/22 02:36:27;;;;;;;23.90;19.53;;;4.50;77.20;;;;;;4989897;28;20040;-44
2022/03/22 02:38:55;;;;;;;27.00;21.13;;;4.50;77.10;;;;;;5005450;28;20731;-44
2022/03/22 02:41:24;;;;;;;26.17;19.73;;;4.50;77.20;;;;;;5009852;28;20037;-44
2022/03/22 02:43:53;;;;;;;29.83;20.75;;;4.50;77.20;;;;;;4992865;28;20343;-45
2022/03/22 02:46:20;;;;;;;26.65;21.55;;;4.50;77.20;;;;;;4992688;28;20038;-44
2022/03/22 02:48:48;;;;;;;26.55;22.05;;;4.50;77.10;;;;;;5008480;28;20522;-44
2022/03/22 02:51:15;;;;;;;24.58;20.17;;;4.50;77.20;;;;;;5009639;28;20030;-45
2022/03/22 02:53:42;;;;;;;27.35;21.55;;;4.50;77.30;;;;;;5009519;28;20536;-45
2022/03/22 02:56:09;;;;;;;26.98;21.48;;;4.50;77.30;;;;;;5009520;28;20086;-44
2022/03/22 02:58:38;;;;;;;26.83;21.63;;;4.40;77.30;;;;;;5009195;28;20041;-45
2022/03/22 03:01:05;;;;;;;27.45;20.85;;;4.40;77.40;;;;;;5008855;28;20092;-44
2022/03/22 03:03:33;;;;;;;29.52;22.30;;;4.40;77.50;;;;;;5009231;28;20118;-44
2022/03/22 03:06:02;;;;;;;26.25;20.05;;;4.40;77.70;;;;;;5009195;28;20045;-46
2022/03/22 03:08:38;;;;;;;26.98;20.70;;;4.40;77.70;;;;;;5011785;28;20463;-45
2022/03/22 03:11:06;;;;;;;23.13;19.00;;;4.30;77.80;;;;;;5012807;28;20125;-45
2022/03/22 03:16:17;;;;;;;23.08;19.75;;;4.30;77.90;;;;;;5012691;28;20053;-48
2022/03/22 03:18:44;;;;;;;30.48;21.48;;;4.20;78.00;;;;;;5013022;28;20026;-45
2022/03/22 03:21:11;;;;;;;26.30;21.88;;;4.20;78.00;;;;;;5013062;28;20091;-45
2022/03/22 03:23:39;;;;;;;25.67;21.02;;;4.20;78.10;;;;;;5013159;28;20030;-45
2022/03/22 03:26:06;;;;;;;26.30;20.48;;;4.20;78.00;;;;;;5012620;28;20364;-44
2022/03/22 03:28:32;;;;;;;26.48;20.80;;;4.20;78.20;;;;;;5012126;28;20443;-44
2022/03/22 03:30:58;;;;;;;28.02;21.55;;;4.10;78.10;;;;;;5012455;28;20104;-44
2022/03/22 03:33:24;;;;;;;25.75;19.13;;;4.10;78.10;;;;;;5012427;28;20088;-45
2022/03/22 03:35:52;;;;;;;25.67;20.63;;;4.10;78.10;;;;;;5012102;28;20379;-46
2022/03/22 03:38:19;;;;;;;28.88;21.33;;;4.10;78.00;;;;;;4995537;28;20069;-45
2022/03/22 03:43:31;;;;;;;27.67;22.48;;;4.00;78.20;;;;;;5012171;28;20095;-45
2022/03/22 03:48:46;;;;;;;30.33;21.17;;;4.00;78.30;;;;;;5012220;28;20036;-44
2022/03/22 03:51:11;;;;;;;29.63;21.25;;;4.00;78.20;;;;;;5010789;28;20034;-44
2022/03/22 03:53:38;;;;;;;26.73;21.33;;;3.90;78.40;;;;;;5012490;28;20032;-44
2022/03/22 03:56:05;;;;;;;27.80;23.38;;;3.90;78.60;;;;;;5012539;28;20383;-45
2022/03/22 03:58:31;;;;;;;31.30;21.92;;;3.90;78.60;;;;;;5011205;28;20037;-44
2022/03/22 04:00:57;;;;;;;26.77;21.75;;;3.90;78.80;;;;;;5012079;28;20025;-44
2022/03/22 04:03:25;;;;;;;28.33;21.77;;;3.90;78.80;;;;;;5011970;28;20081;-44
2022/03/22 04:05:52;;;;;;;31.52;21.73;;;3.90;78.90;;;;;;5011961;28;20036;-44
2022/03/22 04:08:20;;;;;;;28.02;21.30;;;3.90;78.90;;;;;;5011174;28;20041;-45
2022/03/22 04:10:47;;;;;;;30.30;21.90;;;3.90;79.10;;;;;;5009507;28;20038;-44
2022/03/22 04:13:14;;;;;;;27.48;21.05;;;3.90;79.20;;;;;;5009352;28;20036;-44
2022/03/22 04:15:41;;;;;;;28.48;21.20;;;3.90;79.30;;;;;;5010478;28;20050;-46
2022/03/22 04:18:07;;;;;;;27.90;20.80;;;3.90;79.50;;;;;;5009816;28;20037;-45
2022/03/22 04:20:36;;;;;;;27.38;21.27;;;3.80;79.50;;;;;;5008084;28;20156;-45
2022/03/22 04:23:03;;;;;;;25.75;20.80;;;3.80;79.50;;;;;;5009916;28;20079;-45
2022/03/22 04:25:29;;;;;;;25.17;20.80;;;3.80;79.60;;;;;;5010428;28;20113;-45
2022/03/22 04:33:33;;;;;;;26.90;21.23;;;3.80;79.70;;;;;;5007230;28;20436;-44
2022/03/22 04:36:01;;;;;;;25.33;20.52;;;3.70;79.70;;;;;;5010852;28;20645;-44
2022/03/22 04:38:27;;;;;;;26.45;20.73;;;3.70;79.70;;;;;;5010615;28;20038;-44
2022/03/22 04:40:53;;;;;;;31.83;21.98;;;3.70;79.80;;;;;;5010131;28;20535;-44
2022/03/22 04:43:19;;;;;;;27.98;20.98;;;3.70;79.80;;;;;;5009798;28;20117;-46
2022/03/22 04:45:46;;;;;;;29.20;21.15;;;3.70;79.80;;;;;;5008349;28;20041;-44
2022/03/22 04:48:12;;;;;;;25.75;19.58;;;3.70;79.80;;;;;;4990759;28;20027;-48
2022/03/22 04:50:40;;;;;;;31.48;22.70;;;3.70;79.90;;;;;;4993529;28;20463;-44
2022/03/22 04:58:38;;;;;;;33.05;23.70;;;3.70;80.20;;;;;;5009186;28;20036;-44
2022/03/22 05:01:04;;;;;;;26.42;20.33;;;3.60;80.20;;;;;;5007231;28;20431;-45
2022/03/22 05:03:32;;;;;;;27.65;21.52;;;3.50;80.30;;;;;;5009843;28;20115;-45
2022/03/22 05:08:44;;;;;;;26.77;21.73;;;3.50;80.50;;;;;;5009750;28;20164;-44
2022/03/22 05:11:12;;;;;;;27.92;21.15;;;3.50;80.60;;;;;;5009772;28;20136;-45
2022/03/22 05:13:42;;;;;;;27.48;22.05;;;3.50;80.60;;;;;;5009682;28;20430;-47
2022/03/22 05:16:10;;;;;;;31.33;23.45;;;3.40;80.50;;;;;;5009798;28;20375;-44
2022/03/22 05:18:36;;;;;;;27.02;21.20;;;3.40;80.80;;;;;;5009875;28;20022;-45
2022/03/22 05:21:04;;;;;;;30.75;22.60;;;3.40;80.70;;;;;;5009251;28;20037;-44
2022/03/22 05:23:36;;;;;;;28.42;21.83;;;3.40;80.80;;;;;;4991833;28;20293;-47
2022/03/22 05:26:07;;;;;;;28.83;22.40;;;3.50;80.90;;;;;;5007929;28;20065;-45
2022/03/22 05:28:34;;;;;;;29.40;22.70;;;3.50;80.80;;;;;;5006336;28;20029;-45
2022/03/22 05:31:00;;;;;;;28.70;23.02;;;3.50;80.90;;;;;;5009505;28;20109;-46
2022/03/22 05:33:26;;;;;;;28.50;22.67;;;3.50;80.80;;;;;;5009724;28;20101;-45
2022/03/22 05:35:52;;;;;;;27.92;21.58;;;3.50;80.80;;;;;;5009924;28;20030;-44
2022/03/22 05:38:20;;;;;;;28.10;21.77;;;3.50;80.80;;;;;;5008861;28;20037;-45
2022/03/22 05:40:48;;;;;;;29.52;22.33;;;3.50;80.80;;;;;;5008789;28;20044;-44
2022/03/22 05:43:13;;;;;;;30.55;23.05;;;3.50;80.90;;;;;;5008291;28;20367;-44
2022/03/22 05:45:45;;;;;;;30.15;23.15;;;3.50;81.10;;;;;;5009582;28;20143;-44
2022/03/22 05:48:13;;;;;;;30.05;22.38;;;3.50;81.20;;;;;;4992507;28;20018;-44
2022/03/22 05:50:40;;;;;;;27.92;21.77;;;3.50;81.20;;;;;;5009417;28;20163;-43
2022/03/22 05:53:05;;;;;;;28.48;21.48;;;3.50;81.00;;;;;;5008949;28;20040;-45
2022/03/22 05:55:32;;;;;;;29.33;22.70;;;3.50;81.00;;;;;;5008258;28;20430;-43
2022/03/22 05:58:00;;;;;;;30.13;23.30;;;3.60;81.00;;;;;;5009134;28;20017;-45
2022/03/22 06:00:28;;;;;;;27.17;21.80;;;3.60;81.20;;;;;;5008917;28;20097;-44
2022/03/22 06:02:55;;;;;;;28.70;21.90;;;3.60;81.40;;;;;;5007454;28;20022;-45
2022/03/22 06:05:23;;;;;;;30.10;22.88;;;3.70;81.60;;;;;;5009096;28;20025;-44
2022/03/22 06:07:51;;;;;;;29.83;23.73;;;3.80;81.50;;;;;;5008523;28;20038;-46
2022/03/22 06:10:18;;;;;;;28.10;20.92;;;3.80;81.40;;;;;;5005155;28;20523;-45
2022/03/22 06:12:47;;;;;;;28.25;21.83;;;3.90;81.40;;;;;;5008852;28;20122;-45
2022/03/22 06:15:32;;;;;;;26.00;21.50;;;3.90;81.30;;;;;;5008368;28;20045;-47
2022/03/22 06:18:06;;;;;;;28.85;22.55;;;3.90;81.40;;;;;;5009307;28;20479;-45
2022/03/22 06:20:41;;;;;;;28.15;22.25;;;3.90;81.10;;;;;;5006138;28;20034;-44
2022/03/22 06:23:19;;;;;;;27.45;22.27;;;3.90;81.20;;;;;;5006493;28;20075;-43
2022/03/22 06:25:45;;;;;;;27.92;22.10;;;4.00;81.40;;;;;;5008697;28;20112;-44
2022/03/22 06:28:14;;;;;;;28.35;22.67;;;4.00;81.30;;;;;;5006657;28;20026;-44
2022/03/22 06:30:47;;;;;;;26.73;21.73;;;4.10;81.20;;;;;;5006616;28;20359;-44
2022/03/22 06:33:17;;;;;;;31.45;21.40;;;4.20;81.20;;;;;;5008747;28;20112;-45
2022/03/22 06:35:50;;;;;;;26.55;21.02;;;4.30;81.30;;;;;;4991051;28;20459;-44
2022/03/22 06:38:18;;;;;;;27.52;22.38;;;4.30;81.10;;;;;;5007598;28;20077;-46
2022/03/22 06:40:48;;;;;;;31.65;23.08;;;4.40;81.00;;;;;;5008171;28;20028;-47
2022/03/22 06:43:17;;;;;;;28.55;21.45;;;4.40;81.00;;;;;;4993966;28;20052;-44
2022/03/22 06:45:45;;;;;;;29.00;22.25;;;4.50;81.00;;;;;;4994986;28;20594;-46
2022/03/22 06:48:11;;;;;;;26.00;21.60;;;4.60;81.10;;;;;;5011928;28;20041;-46
2022/03/22 06:50:41;;;;;;;27.15;21.83;;;4.60;81.10;;;;;;5010774;28;20517;-44
2022/03/22 06:53:10;;;;;;;30.70;22.50;;;4.70;80.90;;;;;;5012425;28;20112;-45
2022/03/22 06:55:41;;;;;;;27.60;22.00;;;4.70;80.20;;;;;;5011021;28;20034;-45
2022/03/22 06:58:08;;;;;;;27.55;21.25;;;4.90;79.30;;;;;;5010761;28;20033;-44
2022/03/22 07:00:34;;;;;;;26.90;22.10;;;5.00;78.90;;;;;;5000438;28;20088;-46
2022/03/22 07:03:02;;;;;;;29.38;21.80;;;5.10;79.20;;;;;;4967192;28;20452;-44
2022/03/22 07:05:38;;;;;;;29.45;20.95;;;5.30;78.50;;;;;;4984354;28;20116;-45
2022/03/22 07:08:04;;;;;;;27.83;21.17;;;5.50;77.50;;;;;;4985717;28;20129;-48
2022/03/22 07:10:33;;;;;;;25.20;21.83;;;5.70;77.00;;;;;;4986554;28;20048;-45
2022/03/22 07:13:04;;;;;;;26.67;22.08;;;5.90;76.20;;;;;;4982723;28;20042;-45
2022/03/22 07:15:33;;;;;;;28.45;21.23;;;6.00;74.90;;;;;;4975156;28;20434;-46
2022/03/22 07:18:03;;;;;;;25.77;21.52;;;6.20;74.50;;;;;;4983000;28;20064;-47
2022/03/22 07:20:29;;;;;;;24.60;20.58;;;6.40;73.40;;;;;;4986319;28;20026;-47
2022/03/22 07:23:01;;;;;;;26.25;21.02;;;6.60;73.10;;;;;;4983937;28;20104;-46
2022/03/22 07:25:33;;;;;;;25.08;20.52;;;6.70;72.60;;;;;;4990070;28;20666;-45
2022/03/22 07:28:01;;;;;;;24.33;20.23;;;6.90;72.10;;;;;;4987263;28;20200;-45
2022/03/22 07:30:27;;;;;;;26.00;21.02;;;7.00;71.20;;;;;;4983059;28;20037;-44
2022/03/22 07:32:54;;;;;;;29.92;21.77;;;7.20;70.90;;;;;;4981470;28;20763;-44
2022/03/22 07:35:20;;;;;;;28.88;20.83;;;7.40;70.30;;;;;;4990551;28;20018;-44
2022/03/22 07:37:46;;;;;;;25.65;20.35;;;7.50;70.00;;;;;;4983960;28;20057;-44
2022/03/22 07:40:14;;;;;;;27.92;21.23;;;7.70;69.80;;;;;;4966246;28;20034;-45
2022/03/22 07:42:41;;;;;;;30.20;21.70;;;7.90;69.50;;;;;;4983789;28;20048;-44
2022/03/22 07:45:10;;;;;;;25.50;21.75;;;7.90;69.60;;;;;;4982130;28;20023;-46
2022/03/22 07:47:46;;;;;;;27.67;22.40;;;7.90;69.00;;;;;;4969271;28;20030;-45
2022/03/22 07:53:01;;;;;;;25.80;20.65;;;8.10;68.10;;;;;;4982281;28;20054;-45
2022/03/22 07:55:35;;;;;;;25.70;21.08;;;8.20;68.10;;;;;;4984236;28;20505;-47
2022/03/22 07:58:08;;;;;;;29.90;21.65;;;8.40;67.50;;;;;;4992455;28;20208;-45
2022/03/22 08:00:46;;;;;;;28.13;22.05;;;8.50;66.60;;;;;;4983365;28;20117;-47
2022/03/22 08:03:27;;;;;;;27.27;22.00;;;8.70;66.70;;;;;;4997852;28;20045;-47
2022/03/22 08:05:53;;;;;;;26.60;20.42;;;8.90;65.20;;;;;;5007977;28;20371;-49
2022/03/22 08:08:21;;;;;;;25.25;20.08;;;9.20;64.70;;;;;;5008755;28;20030;-47
2022/03/22 08:10:47;;;;;;;26.50;21.60;;;9.50;63.50;;;;;;4991214;28;20042;-49
2022/03/22 08:13:17;;;;;;;28.83;20.80;;;9.90;63.10;;;;;;5008529;28;20101;-51
2022/03/22 08:15:46;;;;;;;28.83;22.08;;;10.00;63.30;;;;;;5007624;28;20100;-47
2022/03/22 08:18:16;;;;;;;27.20;21.13;;;10.40;62.30;;;;;;5006506;28;20455;-47
2022/03/22 08:20:43;;;;;;;28.25;21.30;;;10.60;61.40;;;;;;5007575;28;20609;-46
2022/03/22 08:23:10;;;;;;;25.98;22.15;;;10.90;61.20;;;;;;4991453;28;20042;-45
2022/03/22 08:25:43;;;;;;;29.83;21.90;;;11.20;61.60;;;;;;5008520;28;20037;-45
2022/03/22 08:28:12;;;;;;;24.80;21.42;;;11.40;61.10;;;;;;5007633;28;20637;-46
2022/03/22 08:30:42;;;;;;;23.83;21.27;;;11.50;60.40;;;;;;5003595;28;20117;-47
2022/03/22 08:33:10;;;;;;;24.88;22.23;;;11.60;59.60;;;;;;5005848;28;20052;-49
2022/03/22 08:35:43;;;;;;;27.98;23.02;;;11.80;59.40;;;;;;5008281;28;20275;-44
2022/03/22 08:38:10;;;;;;;26.75;20.98;;;11.90;60.10;;;;;;4989977;28;20037;-45
2022/03/22 08:40:36;;;;;;;29.73;22.27;;;12.20;59.10;;;;;;5008435;28;20068;-45
2022/03/22 08:43:06;;;;;;;24.95;22.35;;;12.40;58.70;;;;;;4989926;28;20066;-45
2022/03/22 08:45:37;;;;;;;24.90;22.08;;;12.50;57.80;;;;;;5005465;28;20042;-44
2022/03/22 08:48:09;;;;;;;26.33;22.08;;;12.70;59.40;;;;;;4986957;28;20140;-47
2022/03/22 08:50:42;;;;;;;23.98;21.17;;;13.00;58.10;;;;;;4988918;28;20038;-45
2022/03/22 08:53:13;;;;;;;24.83;22.02;;;13.20;56.60;;;;;;5006533;28;20048;-47
2022/03/22 08:55:46;;;;;;;23.33;20.83;;;13.40;55.20;;;;;;4987659;28;20092;-45
2022/03/22 08:58:12;;;;;;;30.08;22.92;;;13.50;57.00;;;;;;5003794;28;20685;-44
2022/03/22 09:00:41;;;;;;;26.92;21.05;;;13.60;55.60;;;;;;5005634;28;20034;-46
2022/03/22 09:03:08;;;;;;;25.25;22.05;;;13.80;55.50;;;;;;5005085;28;20034;-46
2022/03/22 09:08:20;;;;;;;26.73;21.80;;;14.20;53.10;;;;;;5006915;28;20128;-44
2022/03/22 09:10:49;;;;;;;25.70;22.98;;;14.20;53.20;;;;;;5006728;28;20459;-47
2022/03/22 09:13:17;;;;;;;;;;;14.30;52.80;;;;;;5008750;28;20030;-50
2022/03/22 09:15:47;;;;;;;24.35;21.83;;;14.60;54.00;;;;;;5004425;28;19979;-45
2022/03/22 09:18:13;;;;;;;25.85;22.02;;;14.60;51.70;;;;;;5006564;28;20042;-49
2022/03/22 09:20:41;;;;;;;26.55;23.85;;;14.80;51.60;;;;;;5007295;28;20060;-47
2022/03/22 09:23:08;;;;;;;27.83;23.42;;;14.90;51.00;;;;;;5007510;28;20117;-47
2022/03/22 09:25:38;;;;;;;25.70;22.98;;;15.00;49.80;;;;;;4990063;28;20052;-45
2022/03/22 09:28:06;;;;;;;;;;;15.00;50.70;;;;;;5007173;28;20105;-48
2022/03/22 09:30:33;;;;;;;27.83;23.15;;;14.90;51.10;;;;;;5007242;28;19923;-46
2022/03/22 09:32:59;;;;;;;26.67;23.77;;;14.90;51.00;;;;;;5007010;28;20038;-45
2022/03/22 09:35:28;;;;;;;30.38;24.55;;;14.90;52.30;;;;;;5006743;28;20195;-45
2022/03/22 09:37:54;;;;;;;30.45;23.48;;;14.90;50.00;;;;;;5006371;28;20116;-46
2022/03/22 09:40:22;;;;;;;25.75;23.10;;;15.30;50.00;;;;;;4989709;28;20041;-44
2022/03/22 09:42:49;;;;;;;27.35;24.05;;;15.50;50.20;;;;;;5005617;28;20026;-45
2022/03/22 09:45:21;;;;;;;25.70;23.10;;;15.90;49.40;;;;;;5005578;28;20329;-45
2022/03/22 09:47:48;;;;;;;26.15;23.60;;;15.70;54.50;;;;;;5002967;28;20029;-45
2022/03/22 09:50:17;;;;;;;25.27;22.63;;;15.40;54.00;;;;;;5006475;28;20040;-46
2022/03/22 09:52:43;;;;;;;25.42;22.95;;;15.40;55.00;;;;;;5007000;28;20037;-45
2022/03/22 09:55:12;;;;;;;25.58;22.83;;;15.60;54.50;;;;;;5005695;28;20098;-45
2022/03/22 09:57:38;;;;;;;25.63;22.92;;;15.60;54.20;;;;;;4988966;28;20146;-43
2022/03/22 10:00:12;;;;;;;26.50;22.13;;;15.90;54.00;;;;;;5005472;28;20115;-43
2022/03/22 10:02:42;;;;;;;27.25;22.95;;;16.00;51.80;;;;;;5006313;28;20040;-42
2022/03/22 10:05:21;;;;;;;25.00;22.30;;;15.80;52.80;;;;;;5004067;28;20120;-43
2022/03/22 10:08:12;;;;;;;27.23;23.27;;;15.90;53.90;;;;;;5004021;28;20044;-42
2022/03/22 10:11:05;;;;;;;24.13;21.50;;;16.10;52.40;;;;;;5002487;28;20058;-43
2022/03/22 10:13:35;;;;;;;27.45;24.35;;;15.90;52.30;;;;;;5005427;28;20100;-43
2022/03/22 10:16:06;;;;;;;26.67;23.95;;;16.10;55.20;;;;;;5005851;28;20066;-43
2022/03/22 10:18:36;;;;;;;26.20;23.50;;;15.90;53.30;;;;;;5005796;28;20061;-42
2022/03/22 10:21:04;;;;;;;30.05;22.50;;;16.10;52.10;;;;;;5004779;28;20080;-42
2022/03/22 10:23:51;;;;;;;29.20;23.83;;;16.20;53.10;;;;;;5005568;28;20053;-43
2022/03/22 10:26:17;;;;;;;26.05;23.40;;;16.40;53.40;;;;;;5005506;28;20038;-44
2022/03/22 10:28:53;;;;;;;23.50;20.98;;;16.50;52.70;;;;;;5004748;28;20037;-45
2022/03/22 10:31:32;;;;;;;24.40;21.92;;;16.60;52.00;;;;;;4986981;28;20367;-47
2022/03/22 10:33:59;;;;;;;26.27;23.48;;;16.60;51.70;;;;;;4989025;28;20054;-43
2022/03/22 10:36:28;;;;;;;26.40;23.70;;;16.60;52.00;;;;;;5005794;28;20022;-48
2022/03/22 10:39:12;;;;;;;25.98;23.27;;;16.60;51.10;;;;;;5005023;28;20077;-47
2022/03/22 10:41:46;;;;;;;28.25;24.63;;;16.60;50.50;;;;;;5006655;28;20416;-45
2022/03/22 10:44:15;;;;;;;25.88;23.27;;;16.60;51.80;;;;;;5002090;28;20104;-47
2022/03/22 10:46:42;;;;;;;28.77;25.42;;;16.90;50.80;;;;;;5005770;28;20418;-45
2022/03/22 10:49:18;;;;;;;31.60;24.77;;;17.20;52.70;;;;;;4972849;28;20022;-45
2022/03/22 10:52:04;;;;;;;28.00;25.05;;;17.40;50.10;;;;;;5004439;28;20053;-48
2022/03/22 10:54:32;;;;;;;27.10;24.20;;;17.80;46.40;;;;;;5005132;28;20030;-48
2022/03/22 10:57:01;;;;;;;29.95;25.23;;;17.90;45.10;;;;;;5005125;28;20026;-46
2022/03/22 10:59:32;;;;;;;27.38;23.83;;;17.80;45.00;;;;;;5005586;28;20105;-48
2022/03/22 11:01:59;;;;;;;;;;;17.70;45.70;;;;;;4988881;28;20026;-44
2022/03/22 11:04:28;;;;;;;26.45;23.30;;;17.80;45.40;;;;;;5005672;28;20331;-46
2022/03/22 11:06:57;;;;;;;27.88;24.67;;;17.80;44.50;;;;;;5004863;28;20482;-49
2022/03/22 11:09:26;;;;;;;30.85;23.88;;;17.80;44.50;;;;;;5005736;28;20060;-45
2022/03/22 11:11:57;;;;;;;28.27;25.17;;;17.90;46.70;;;;;;5006433;28;20038;-45
2022/03/22 11:14:23;;;;;;;;;;;17.80;45.10;;;;;;4988589;28;20046;-45
2022/03/22 11:16:50;;;;;;;31.48;25.50;;;17.90;44.60;;;;;;5004313;28;19949;-45
2022/03/22 11:19:18;;;;;;;27.95;24.38;;;18.00;45.00;;;;;;5005450;28;20022;-45
2022/03/22 11:21:46;;;;;;;29.58;24.60;;;18.00;42.50;;;;;;4987298;28;20088;-46
2022/03/22 11:24:14;;;;;;;28.33;25.17;;;18.00;42.00;;;;;;5004277;28;20026;-45
2022/03/22 11:26:44;;;;;;;30.08;25.70;;;18.10;43.90;;;;;;5004538;28;20120;-44
2022/03/22 11:29:17;;;;;;;29.50;24.63;;;18.20;43.80;;;;;;5007009;28;20075;-45
2022/03/22 11:34:08;;;;;;;30.65;24.10;;;18.20;42.70;;;;;;5006112;28;20044;-45
2022/03/22 11:34:35;;;;;;;26.50;23.60;;;18.20;43.30;;;;;;5008276;28;20117;-45
2022/03/22 11:37:02;;;;;;;28.83;25.17;;;18.00;42.90;;;;;;5008331;28;20034;-45
2022/03/22 11:42:25;;;;;;;27.95;25.02;;;18.10;43.10;;;;;;5009040;28;20107;-45
2022/03/22 11:45:07;;;;;;;29.77;25.02;;;18.30;40.90;;;;;;4992601;28;20117;-45
2022/03/22 11:47:54;;;;;;;31.90;24.63;;;18.30;43.10;;;;;;4991122;28;20044;-48
2022/03/22 11:50:22;;;;;;;27.48;23.63;;;18.30;42.00;;;;;;5005663;28;20056;-44
2022/03/22 11:53:01;;;;;;;29.48;23.63;;;18.20;41.80;;;;;;5007215;28;20023;-44
2022/03/22 11:55:40;;;;;;;34.83;26.30;;;18.20;41.70;;;;;;5007815;28;20121;-46
2022/03/22 11:58:10;;;;;;;27.42;23.95;;;18.30;42.30;;;;;;5007454;28;20038;-46
2022/03/22 12:00:45;;;;;;;30.70;24.45;;;18.20;43.10;;;;;;5007208;28;20049;-47
2022/03/22 12:03:22;;;;;;;30.80;25.80;;;18.30;42.30;;;;;;5005624;28;20050;-44
2022/03/22 12:05:49;;;;;;;31.10;25.05;;;18.40;42.30;;;;;;5007065;28;20042;-47
2022/03/22 12:08:20;;;;;;;30.73;25.77;;;18.40;40.60;;;;;;5006082;28;20500;-47
2022/03/22 12:10:54;;;;;;;28.70;24.60;;;18.40;41.40;;;;;;5007911;28;20025;-45
2022/03/22 12:13:25;;;;;;;32.35;26.38;;;18.50;40.80;;;;;;4990968;28;20037;-48
2022/03/22 12:16:04;;;;;;;34.22;25.83;;;18.40;41.00;;;;;;5007545;28;20038;-47
2022/03/22 12:18:31;;;;;;;28.00;23.52;;;18.40;42.10;;;;;;5007849;28;20057;-48
2022/03/22 12:20:59;;;;;;;29.65;24.90;;;18.40;41.90;;;;;;4990471;28;20038;-50
2022/03/22 12:23:27;;;;;;;32.03;26.42;;;18.50;40.60;;;;;;5005972;28;20333;-43
2022/03/22 12:25:57;;;;;;;28.00;23.30;;;18.50;41.00;;;;;;5007224;28;20022;-44
2022/03/22 12:28:22;;;;;;;27.92;24.92;;;18.50;41.40;;;;;;5006692;28;20041;-46
2022/03/22 12:30:50;;;;;;;30.95;26.15;;;18.50;41.80;;;;;;5006507;28;20359;-48
2022/03/22 12:33:21;;;;;;;26.95;23.25;;;18.50;41.80;;;;;;5007324;28;20202;-47
2022/03/22 12:35:50;;;;;;;31.05;24.20;;;18.50;42.80;;;;;;5023512;28;20121;-49
2022/03/22 12:38:19;;;;;;;29.52;23.85;;;18.40;43.10;;;;;;5007722;28;20427;-45
2022/03/22 12:40:45;;;;;;;30.02;26.67;;;18.50;43.30;;;;;;5006908;28;20026;-46
2022/03/22 12:43:19;;;;;;;31.77;25.85;;;18.50;43.60;;;;;;5008193;28;20414;-49
2022/03/22 12:45:48;;;;;;;31.13;26.33;;;18.40;44.40;;;;;;5007873;28;20029;-46
2022/03/22 12:48:16;;;;;;;;;;;18.30;46.00;;;;;;5007566;28;20075;-44
2022/03/22 12:50:42;;;;;;;28.45;23.83;;;18.30;45.30;;;;;;5007264;28;19914;-45
2022/03/22 12:53:11;;;;;;;33.00;24.00;;;18.40;42.20;;;;;;5007785;28;20172;-46
2022/03/22 12:55:42;;;;;;;30.38;23.23;;;18.30;42.20;;;;;;5004241;28;20046;-45
2022/03/22 12:58:09;;;;;;;30.52;23.73;;;18.20;43.30;;;;;;5006571;28;20069;-49
2022/03/22 13:00:39;;;;;;;28.88;24.77;;;18.10;43.00;;;;;;5004945;28;20088;-49
2022/03/22 13:03:13;;;;;;;31.92;25.33;;;17.90;42.10;;;;;;5006928;28;20022;-48
2022/03/22 13:05:51;;;;;;;32.05;25.20;;;17.80;42.90;;;;;;5005784;28;20052;-45
2022/03/22 13:11:26;;;;;;;33.25;27.05;;;17.60;43.00;;;;;;5005183;28;20092;-45
2022/03/22 13:11:29;;;;;;;34.15;25.85;;;17.70;43.80;;;;;;4991337;28;20034;-47
2022/03/22 13:16:57;;;;;;;32.78;27.25;;;17.70;47.90;;;;;;4990619;28;20056;-47
2022/03/22 13:19:32;;;;;;;29.23;25.38;;;17.60;45.80;;;;;;5007204;28;20029;-47
2022/03/22 13:22:02;;;;;;;34.80;26.67;;;17.50;45.70;;;;;;4988732;28;20737;-50
2022/03/22 13:24:31;;;;;;;31.13;26.63;;;17.40;48.20;;;;;;5006920;28;20026;-47
2022/03/22 13:27:05;;;;;;;29.77;26.57;;;17.40;49.40;;;;;;5005887;28;20387;-47